ENSG/SOG METAR and TAF weather

Enter ICAO airport designator
Station Type Date Time Source
ENSG METAR 2021/05/14 19:50 UTC NOAA

ENSG 141950Z 05004KT 9999 SCT050 SCT090 14/07 Q1004 RMK WIND 3806FT 09010KT


Station Type Date Time Source
ENSG Decoded METAR 2021/05/14 19:50 UTC NOAA

Sogndal / Haukasen, Norway (ENSG) 61-09N 007-08E 497M
May 14, 2021 - 03:50 PM EDT / 2021.05.14 1950 UTC
Wind: from the NE (050 degrees) at 5 MPH (4 KT):0
Visibility: greater than 7 mile(s):0
Sky conditions: partly cloudy
Temperature: 57 F (14 C)
Dew Point: 44 F (7 C)
Relative Humidity: 62%
Pressure (altimeter): 29.65 in. Hg (1004 hPa)
ob: ENSG 141950Z 05004KT 9999 SCT050 SCT090 14/07 Q1004 RMK WIND 3806FT 09010KT
cycle: 20

Station Type Date Time Source
ENSG TAF UTC NOAA

Error!

Example: see airport list